地図

経路データ

SID SEASON NUMBER BASIN SUBBASIN NAME ISO_TIME NATURE LAT LON WMO_WIND WMO_PRES WMO_AGENCY TRACK_TYPE DIST2LAND LANDFALL IFLAG USA_AGENCY USA_ATCF_ID USA_LAT USA_LON USA_RECORD USA_STATUS USA_WIND USA_PRES USA_SSHS USA_R34_NE USA_R34_SE USA_R34_SW USA_R34_NW USA_R50_NE USA_R50_SE USA_R50_SW USA_R50_NW USA_R64_NE USA_R64_SE USA_R64_SW USA_R64_NW USA_POCI USA_ROCI USA_RMW USA_EYE TOKYO_LAT TOKYO_LON TOKYO_GRADE TOKYO_WIND TOKYO_PRES TOKYO_R50_DIR TOKYO_R50_LONG TOKYO_R50_SHORT TOKYO_R30_DIR TOKYO_R30_LONG TOKYO_R30_SHORT TOKYO_LAND CMA_LAT CMA_LON CMA_CAT CMA_WIND CMA_PRES HKO_LAT HKO_LON HKO_CAT HKO_WIND HKO_PRES NEWDELHI_LAT NEWDELHI_LON NEWDELHI_GRADE NEWDELHI_WIND NEWDELHI_PRES NEWDELHI_CI NEWDELHI_DP NEWDELHI_POCI REUNION_LAT REUNION_LON REUNION_TYPE REUNION_WIND REUNION_PRES REUNION_TNUM REUNION_CI REUNION_RMW REUNION_R34_NE REUNION_R34_SE REUNION_R34_SW REUNION_R34_NW REUNION_R50_NE REUNION_R50_SE REUNION_R50_SW REUNION_R50_NW REUNION_R64_NE REUNION_R64_SE REUNION_R64_SW REUNION_R64_NW BOM_LAT BOM_LON BOM_TYPE BOM_WIND BOM_PRES BOM_TNUM BOM_CI BOM_RMW BOM_R34_NE BOM_R34_SE BOM_R34_SW BOM_R34_NW BOM_R50_NE BOM_R50_SE BOM_R50_SW BOM_R50_NW BOM_R64_NE BOM_R64_SE BOM_R64_SW BOM_R64_NW BOM_ROCI BOM_POCI BOM_EYE BOM_POS_METHOD BOM_PRES_METHOD NADI_LAT NADI_LON NADI_CAT NADI_WIND NADI_PRES WELLINGTON_LAT WELLINGTON_LON WELLINGTON_WIND WELLINGTON_PRES DS824_LAT DS824_LON DS824_STAGE DS824_WIND DS824_PRES TD9636_LAT TD9636_LON TD9636_STAGE TD9636_WIND TD9636_PRES TD9635_LAT TD9635_LON TD9635_WIND TD9635_PRES TD9635_ROCI NEUMANN_LAT NEUMANN_LON NEUMANN_CLASS NEUMANN_WIND NEUMANN_PRES MLC_LAT MLC_LON MLC_CLASS MLC_WIND MLC_PRES USA_GUST BOM_GUST BOM_GUST_PER REUNION_GUST REUNION_GUST_PER USA_SEAHGT USA_SEARAD_NE USA_SEARAD_SE USA_SEARAD_SW USA_SEARAD_NW STORM_SPEED STORM_DIR
1959252N32293 1959 77 NA NA NOT_NAMED 1959-09-09 00:00:00 TS 32.3000 -67.5000 25 hurdat_atl main 832 826 O_____________ hurdat_atl AL141959 32.3000 -67.5000 TD 25 -1 2 0
1959252N32293 1959 77 NA NA NOT_NAMED 1959-09-09 03:00:00 TS 32.3725 -67.5324 main 826 821 P_____________ AL141959 32.3725 -67.5324 TD 25 -1 2 8
1959252N32293 1959 77 NA NA NOT_NAMED 1959-09-09 06:00:00 TS 32.5000 -67.5000 25 1007 hurdat_atl main 821 815 O_____________ hurdat_atl AL141959 32.5000 -67.5000 TD 25 1007 -1 4 22
1959252N32293 1959 77 NA NA NOT_NAMED 1959-09-09 09:00:00 TS 32.7201 -67.3652 main 818 817 P_____________ AL141959 32.7201 -67.3652 TD 27 -1 6 27
1959252N32293 1959 77 NA NA NOT_NAMED 1959-09-09 12:00:00 TS 33.0000 -67.2000 30 hurdat_atl main 821 816 O_____________ hurdat_atl AL141959 33.0000 -67.2000 TD 30 -1 6 24
1959252N32293 1959 77 NA NA NOT_NAMED 1959-09-09 15:00:00 TS 33.3000 -67.0627 main 816 812 P_____________ AL141959 33.3000 -67.0627 TD 30 -1 6 16
1959252N32293 1959 77 NA NA NOT_NAMED 1959-09-09 18:00:00 TS 33.6000 -67.0000 30 hurdat_atl main 812 802 O_____________ hurdat_atl AL141959 33.6000 -67.0000 TD 30 -1 6 4
1959252N32293 1959 77 NA NA NOT_NAMED 1959-09-09 21:00:00 TS 33.8648 -67.0251 main 802 777 P_____________ AL141959 33.8648 -67.0251 TD 30 -1 5 341
1959252N32293 1959 77 NA NA NOT_NAMED 1959-09-10 00:00:00 TS 34.1000 -67.2000 30 hurdat_atl main 777 745 O_____________ hurdat_atl AL141959 34.1000 -67.2000 TD 30 -1 6 318
1959252N32293 1959 77 NA NA NOT_NAMED 1959-09-10 03:00:00 TS 34.2995 -67.5030 main 745 695 P_____________ AL141959 34.2995 -67.5030 TD 30 -1 8 301
1959252N32293 1959 77 NA NA NOT_NAMED 1959-09-10 06:00:00 TS 34.5000 -68.0000 30 hurdat_atl main 695 628 O_____________ hurdat_atl AL141959 34.5000 -68.0000 TD 30 -1 11 291
1959252N32293 1959 77 NA NA NOT_NAMED 1959-09-10 09:00:00 TS 34.7064 -68.7722 main 619 549 P_____________ AL141959 34.7064 -68.7722 TD 32 -1 13 292
1959252N32293 1959 77 NA NA NOT_NAMED 1959-09-10 12:00:00 TS 35.0000 -69.5000 35 hurdat_atl main 549 516 O_____________ hurdat_atl AL141959 35.0000 -69.5000 TS 35 0 11 310
1959252N32293 1959 77 NA NA NOT_NAMED 1959-09-10 15:00:00 TS 35.4392 -69.8407 main 516 494 P_____________ AL141959 35.4392 -69.8407 TS 35 0 11 338
1959252N32293 1959 77 NA NA NOT_NAMED 1959-09-10 18:00:00 TS 36.0000 -70.0000 35 1006 hurdat_atl main 494 471 O_____________ hurdat_atl AL141959 36.0000 -70.0000 TS 35 1006 0 12 346
1959252N32293 1959 77 NA NA NOT_NAMED 1959-09-10 21:00:00 TS 36.6425 -70.2093 main 471 425 P_____________ AL141959 36.6425 -70.2093 TS 35 0 13 349
1959252N32293 1959 77 NA NA NOT_NAMED 1959-09-11 00:00:00 TS 37.3000 -70.3000 35 hurdat_atl main 425 387 O_____________ hurdat_atl AL141959 37.3000 -70.3000 TS 35 0 12 358
1959252N32293 1959 77 NA NA NOT_NAMED 1959-09-11 03:00:00 TS 37.8642 -70.2838 main 378 347 P_____________ AL141959 37.8642 -70.2838 TS 35 0 11 12
1959252N32293 1959 77 NA NA NOT_NAMED 1959-09-11 06:00:00 TS 38.4000 -70.0000 35 hurdat_atl main 347 306 O_____________ hurdat_atl AL141959 38.4000 -70.0000 TS 35 0 13 33
1959252N32293 1959 77 NA NA NOT_NAMED 1959-09-11 09:00:00 TS 38.9655 -69.3560 main 299 275 P_____________ AL141959 38.9655 -69.3560 TS 37 0 16 47
1959252N32293 1959 77 NA NA NOT_NAMED 1959-09-11 12:00:00 TS 39.5000 -68.5000 40 1002 hurdat_atl main 275 264 O_____________ hurdat_atl AL141959 39.5000 -68.5000 TS 40 1002 0 17 52
1959252N32293 1959 77 NA NA NOT_NAMED 1959-09-11 15:00:00 TS 39.9870 -67.6719 main 270 270 P_____________ AL141959 39.9870 -67.6719 TS 40 0 16 55
1959252N32293 1959 77 NA NA NOT_NAMED 1959-09-11 18:00:00 ET 40.4000 -66.8000 40 hurdat_atl main 304 304 O_____________ hurdat_atl AL141959 40.4000 -66.8000 EX 40 -4 16 61
1959252N32293 1959 77 NA NA NOT_NAMED 1959-09-11 21:00:00 ET 40.7301 -65.8766 main 311 278 P_____________ AL141959 40.7301 -65.8766 EX 42 -4 15 66
1959252N32293 1959 77 NA NA NOT_NAMED 1959-09-12 00:00:00 ET 41.0000 -65.0000 45 hurdat_atl main 279 264 O_____________ hurdat_atl AL141959 41.0000 -65.0000 EX 45 -4 13 67
1959252N32293 1959 77 NA NA NOT_NAMED 1959-09-12 03:00:00 ET 41.2565 -64.2689 main 257 256 P_____________ AL141959 41.2565 -64.2689 EX 47 -4 12 65
1959252N32293 1959 77 NA NA NOT_NAMED 1959-09-12 06:00:00 ET 41.5000 -63.6000 50 hurdat_atl main 262 262 O_____________ hurdat_atl AL141959 41.5000 -63.6000 EX 50 -4 11 65
1959252N32293 1959 77 NA NA NOT_NAMED 1959-09-12 09:00:00 ET 41.7271 -62.8987 main 279 275 P_____________ AL141959 41.7271 -62.8987 EX 52 -4 12 64
1959252N32293 1959 77 NA NA NOT_NAMED 1959-09-12 12:00:00 ET 42.0000 -62.2000 55 hurdat_atl main 289 274 O_____________ hurdat_atl AL141959 42.0000 -62.2000 EX 55 -4 11 57
1959252N32293 1959 77 NA NA NOT_NAMED 1959-09-12 15:00:00 ET 42.3516 -61.6159 main 273 256 P_____________ AL141959 42.3516 -61.6159 EX 55 -4 13 52
1959252N32293 1959 77 NA NA NOT_NAMED 1959-09-12 18:00:00 ET 42.8000 -60.8000 55 hurdat_atl main 259 241 O_____________ hurdat_atl AL141959 42.8000 -60.8000 EX 55 -4 18 59
1959252N32293 1959 77 NA NA NOT_NAMED 1959-09-12 21:00:00 ET 43.3126 -59.4635 main 246 245 P_____________ AL141959 43.3126 -59.4635 EX 52 -4 24 63
1959252N32293 1959 77 NA NA NOT_NAMED 1959-09-13 00:00:00 ET 43.9000 -57.8000 50 hurdat_atl main 277 257 O_____________ hurdat_atl AL141959 43.9000 -57.8000 EX 50 -4 27 64
1959252N32293 1959 77 NA NA NOT_NAMED 1959-09-13 03:00:00 ET 44.5128 -56.0198 main 256 164 P_____________ AL141959 44.5128 -56.0198 EX 50 -4 29 63
1959252N32293 1959 77 NA NA NOT_NAMED 1959-09-13 06:00:00 ET 45.2000 -54.2000 50 hurdat_atl main 162 90 O_____________ hurdat_atl AL141959 45.2000 -54.2000 EX 50 -4 29 60
1959252N32293 1959 77 NA NA NOT_NAMED 1959-09-13 09:00:00 ET 45.9692 -52.4591 main 85 85 P_____________ AL141959 45.9692 -52.4591 EX 47 -4 28 55
1959252N32293 1959 77 NA NA NOT_NAMED 1959-09-13 12:00:00 ET 46.8000 -50.9000 45 hurdat_atl main 149 149 O_____________ hurdat_atl AL141959 46.8000 -50.9000 EX 45 -4 26 50
1959252N32293 1959 77 NA NA NOT_NAMED 1959-09-13 15:00:00 ET 47.6171 -49.5964 main 224 224 P_____________ AL141959 47.6171 -49.5964 EX 45 -4 23 44
1959252N32293 1959 77 NA NA NOT_NAMED 1959-09-13 18:00:00 ET 48.5000 -48.5000 45 hurdat_atl main 319 319 O_____________ hurdat_atl AL141959 48.5000 -48.5000 EX 45 -4 23 37
1959252N32293 1959 77 NA NA NOT_NAMED 1959-09-13 21:00:00 ET 49.4747 -47.4920 main 414 414 P_____________ AL141959 49.4747 -47.4920 EX 45 -4 24 33
1959252N32293 1959 77 NA NA NOT_NAMED 1959-09-14 00:00:00 ET 50.5000 -46.5000 45 hurdat_atl main 516 O_____________ hurdat_atl AL141959 50.5000 -46.5000 EX 45 -4 24 32

IBTrACS Databaseについて

本データベースは、米国NOAAが公開する1842年以降の世界の熱帯低気圧のベストトラックデータアーカイブInternational Best Track Archive for Climate Stewardship (IBTrACS)を、ウェブで閲覧しやすい形式に変換したものです。

最終更新日:2021-10-08